Time;durP1;ratioP1;P1;durP2;ratioP2;P2;SDS_P1;SDS_P2;PMS_P1;PMS_P2;Temp;Humidity;BMP_temperature;BMP_pressure;BME280_temperature;BME280_humidity;BME280_pressure;Samples;Min_cycle;Max_cycle;Signal;HPM_P1;HPM_P2
2021/07/19 00:05:32;;;;;;;11.1;8.2;;;;;;;20.44;100;98430.14;;;;
2021/07/19 00:15:32;;;;;;;11.8;10;;;;;;;20.41;100;98444.59;;;;
2021/07/19 00:25:32;;;;;;;13.7;11.2;;;;;;;20.42;100;98465.3;;;;
2021/07/19 00:35:32;;;;;;;12.1;10.4;;;;;;;20.36;100;98459.39;;;;
2021/07/19 00:45:33;;;;;;;13.3;10.1;;;;;;;20.14;100;98456.74;;;;
2021/07/19 00:55:33;;;;;;;16.1;10.5;;;;;;;20.18;100;98461.1;;;;
2021/07/19 01:05:33;;;;;;;12.8;10.7;;;;;;;19.9;100;98456.08;;;;
2021/07/19 01:15:33;;;;;;;14.7;10.1;;;;;;;19.91;100;98451.41;;;;
2021/07/19 01:25:33;;;;;;;11.5;9.2;;;;;;;19.88;100;98460.35;;;;
2021/07/19 01:35:34;;;;;;;14.7;11.3;;;;;;;19.86;100;98460.71;;;;
2021/07/19 01:45:34;;;;;;;15.4;9.8;;;;;;;19.82;100;98470.81;;;;
2021/07/19 01:55:34;;;;;;;11.1;8.4;;;;;;;19.75;100;98467.22;;;;
2021/07/19 02:05:34;;;;;;;11.8;6.8;;;;;;;19.67;100;98465.54;;;;
2021/07/19 02:15:34;;;;;;;9.6;6.7;;;;;;;19.62;100;98477.58;;;;
2021/07/19 02:25:34;;;;;;;10.9;6.2;;;;;;;19.56;100;98487.27;;;;
2021/07/19 02:35:34;;;;;;;9.9;6.3;;;;;;;19.54;100;98481.39;;;;
2021/07/19 02:45:35;;;;;;;10;4.4;;;;;;;19.34;100;98486.12;;;;
2021/07/19 02:55:34;;;;;;;7.6;3.1;;;;;;;19.23;100;98482.43;;;;
2021/07/19 03:05:34;;;;;;;7;3.8;;;;;;;19.08;100;98500.56;;;;
2021/07/19 03:15:34;;;;;;;6.1;3.5;;;;;;;19;100;98501.59;;;;
2021/07/19 03:25:34;;;;;;;9.1;4.7;;;;;;;18.98;100;98503.11;;;;
2021/07/19 03:35:35;;;;;;;6.3;3.5;;;;;;;19.05;100;98503.99;;;;
2021/07/19 03:45:35;;;;;;;11.7;4.5;;;;;;;18.93;100;98503.41;;;;
2021/07/19 03:55:35;;;;;;;9.2;4.2;;;;;;;19;100;98498.06;;;;
2021/07/19 04:05:40;;;;;;;10.1;4.4;;;;;;;19.09;100;98504.05;;;;
2021/07/19 04:15:35;;;;;;;9.4;5.1;;;;;;;19.23;100;98503.53;;;;
2021/07/19 04:25:35;;;;;;;8.6;4.5;;;;;;;19.77;100;98522.32;;;;
2021/07/19 04:35:35;;;;;;;7;3.7;;;;;;;20.1;100;98519.63;;;;
2021/07/19 04:45:35;;;;;;;6.6;4.5;;;;;;;20.17;100;98529.88;;;;
2021/07/19 04:55:36;;;;;;;10.2;5;;;;;;;20.19;100;98536.58;;;;
2021/07/19 05:05:36;;;;;;;5.5;3.1;;;;;;;20.32;100;98526.98;;;;
2021/07/19 05:15:36;;;;;;;10.1;3.1;;;;;;;20.52;100;98527.59;;;;
2021/07/19 05:25:36;;;;;;;7.1;3.3;;;;;;;20.5;100;98529.94;;;;
2021/07/19 05:35:37;;;;;;;7.1;3.7;;;;;;;20.62;100;98523.42;;;;
2021/07/19 05:45:37;;;;;;;10.1;4;;;;;;;20.81;100;98507.58;;;;
2021/07/19 05:55:37;;;;;;;10.5;4.9;;;;;;;20.8;100;98527.11;;;;
2021/07/19 06:05:38;;;;;;;10.7;3.7;;;;;;;20.67;100;98545.77;;;;
2021/07/19 06:15:38;;;;;;;7.6;4.6;;;;;;;21.01;100;98551.98;;;;
2021/07/19 06:25:41;;;;;;;12.2;5.8;;;;;;;20.87;100;98557.32;;;;
2021/07/19 06:35:39;;;;;;;9.4;6;;;;;;;20.53;100;98573;;;;
2021/07/19 06:45:40;;;;;;;9.3;5.6;;;;;;;20.64;100;98578.59;;;;
2021/07/19 06:55:40;;;;;;;12.5;6.3;;;;;;;21.04;100;98582.16;;;;
2021/07/19 07:05:40;;;;;;;11.3;5.7;;;;;;;21.56;100;98583.84;;;;
2021/07/19 07:15:41;;;;;;;6.4;4.5;;;;;;;22.21;100;98582.34;;;;
2021/07/19 07:25:41;;;;;;;13.5;6.6;;;;;;;22.51;100;98588.36;;;;
2021/07/19 07:35:42;;;;;;;13.1;5.7;;;;;;;22.5;100;98590.32;;;;
2021/07/19 07:45:42;;;;;;;11.6;5.5;;;;;;;22.34;100;98580.83;;;;
2021/07/19 07:55:43;;;;;;;12;6.2;;;;;;;22.89;100;98579.49;;;;
2021/07/19 08:05:44;;;;;;;9.9;5;;;;;;;22.8;100;98575.55;;;;
2021/07/19 08:15:47;;;;;;;9.5;5;;;;;;;22.74;100;98577.88;;;;
2021/07/19 08:25:45;;;;;;;7.4;4.6;;;;;;;23;100;98572.06;;;;
2021/07/19 08:35:46;;;;;;;8.7;6.3;;;;;;;23.36;100;98572.11;;;;
2021/07/19 08:45:47;;;;;;;11.5;5.3;;;;;;;23.79;100;98562.67;;;;
2021/07/19 08:55:50;;;;;;;6.6;5;;;;;;;24.27;100;98568.48;;;;
2021/07/19 09:05:48;;;;;;;11.3;5;;;;;;;24.52;100;98565.64;;;;
2021/07/19 09:15:49;;;;;;;10.6;6.9;;;;;;;24.93;100;98557.58;;;;
2021/07/19 09:25:53;;;;;;;12.4;7.4;;;;;;;25.77;100;98539.59;;;;
2021/07/19 09:35:52;;;;;;;10.7;6.1;;;;;;;25.72;100;98539.27;;;;
2021/07/19 09:45:58;;;;;;;9.2;6.2;;;;;;;26.23;100;98543.88;;;;
2021/07/19 09:55:54;;;;;;;8.5;5;;;;;;;26.06;100;98529.05;;;;
2021/07/19 10:05:54;;;;;;;7.5;4.7;;;;;;;25.72;100;98511.66;;;;
2021/07/19 10:15:55;;;;;;;8.9;5.1;;;;;;;25.51;100;98505.13;;;;
2021/07/19 10:25:56;;;;;;;9.6;5.4;;;;;;;26.19;100;98496.16;;;;
2021/07/19 10:35:57;;;;;;;7.8;5.4;;;;;;;25.63;100;98492.8;;;;
2021/07/19 10:45:58;;;;;;;10.4;6.6;;;;;;;24.78;100;98485.16;;;;
2021/07/19 10:56:02;;;;;;;9;5.4;;;;;;;25.01;100;98473.63;;;;
2021/07/19 11:05:59;;;;;;;13.9;7.9;;;;;;;25.35;100;98466.23;;;;
2021/07/19 11:16:00;;;;;;;8.4;5;;;;;;;25.09;100;98464.11;;;;
2021/07/19 11:26:01;;;;;;;11.4;6.1;;;;;;;25.75;94.13379;98450.09;;;;
2021/07/19 11:36:02;;;;;;;10.5;6.5;;;;;;;26.17;93.61621;98457.88;;;;
2021/07/19 11:46:03;;;;;;;10.8;6.4;;;;;;;25.66;94.72852;98447.02;;;;
2021/07/19 11:56:04;;;;;;;11.3;7.3;;;;;;;25.68;91.26953;98436.37;;;;
2021/07/19 12:06:05;;;;;;;10.6;7.4;;;;;;;25.52;92.58691;98432.19;;;;
2021/07/19 12:16:06;;;;;;;15.6;8.8;;;;;;;25.59;92.53027;98416.73;;;;
2021/07/19 12:26:06;;;;;;;12.6;8.3;;;;;;;25.89;89.20703;98411.27;;;;
2021/07/19 12:36:07;;;;;;;10.9;8;;;;;;;26.18;88.15625;98400.65;;;;
2021/07/19 12:46:08;;;;;;;11.5;7.6;;;;;;;26.65;75.74609;98393.26;;;;
2021/07/19 12:56:09;;;;;;;10.3;7.2;;;;;;;26.69;68.05176;98399.52;;;;
2021/07/19 13:06:10;;;;;;;11.5;7.7;;;;;;;26.54;70.41113;98385.13;;;;
2021/07/19 13:16:11;;;;;;;10.4;7.6;;;;;;;26.59;69.71582;98373.58;;;;
2021/07/19 13:26:12;;;;;;;10.6;7.9;;;;;;;26.4;70.43652;98364.02;;;;
2021/07/19 13:36:13;;;;;;;12.9;8.9;;;;;;;26.34;70.58984;98370.44;;;;
2021/07/19 13:46:14;;;;;;;12.1;8.8;;;;;;;26.51;70.29102;98364.64;;;;
2021/07/19 13:56:15;;;;;;;10.8;9.1;;;;;;;26.6;69.80957;98377.13;;;;
2021/07/19 14:06:16;;;;;;;12.2;9.2;;;;;;;26.48;69.35938;98365.45;;;;
2021/07/19 14:16:17;;;;;;;15.9;11.3;;;;;;;27.24;70.85938;98363.03;;;;
2021/07/19 14:26:18;;;;;;;16.9;10.5;;;;;;;27.54;67.27539;98368.41;;;;
2021/07/19 14:36:19;;;;;;;18.9;9.9;;;;;;;27.75;63.16309;98362.44;;;;
2021/07/19 14:46:20;;;;;;;16.6;13;;;;;;;28.26;61.73535;98357.39;;;;
2021/07/19 14:56:21;;;;;;;16.1;12.3;;;;;;;28.37;59.18945;98349.62;;;;
2021/07/19 15:06:22;;;;;;;18;11.9;;;;;;;28.51;58.03809;98343.73;;;;
2021/07/19 15:16:23;;;;;;;14.5;12.3;;;;;;;30.27;55.37891;98337.33;;;;
2021/07/19 15:26:24;;;;;;;18.8;13.3;;;;;;;31.6;47.43457;98331.25;;;;
2021/07/19 15:36:26;;;;;;;24.7;12.9;;;;;;;31.92;44.85059;98344;;;;
2021/07/19 15:46:28;;;;;;;15;12.1;;;;;;;33.03;42.05859;98346.73;;;;
2021/07/19 15:56:30;;;;;;;15.8;12.1;;;;;;;33.52;43.08887;98341.8;;;;
2021/07/19 16:06:31;;;;;;;17;9.5;;;;;;;30.36;49.43555;98341.02;;;;
2021/07/19 16:16:33;;;;;;;27.4;22;;;;;;;29.6;55.5459;98347.67;;;;
2021/07/19 16:26:34;;;;;;;13.8;9.1;;;;;;;27.94;60.96191;98347.77;;;;
2021/07/19 16:36:36;;;;;;;11.2;8;;;;;;;26.86;66.48145;98349.48;;;;
2021/07/19 16:46:37;;;;;;;20.3;13.2;;;;;;;26.12;71.3877;98356.11;;;;
2021/07/19 16:56:38;;;;;;;10.2;7.1;;;;;;;26.9;69.46875;98366.02;;;;
2021/07/19 17:06:39;;;;;;;11.6;6.4;;;;;;;26.94;66.39941;98375.8;;;;
2021/07/19 17:16:39;;;;;;;19.1;8.6;;;;;;;26.11;72.02832;98378.61;;;;
2021/07/19 17:26:40;;;;;;;13.3;7.9;;;;;;;24.84;77.92773;98381.59;;;;
2021/07/19 17:36:41;;;;;;;8.8;6.4;;;;;;;23.96;87.97168;98391.16;;;;
2021/07/19 17:46:41;;;;;;;11.7;10.2;;;;;;;23.31;93.87012;98415.72;;;;
2021/07/19 17:56:42;;;;;;;13;7.3;;;;;;;22.66;95.91504;98419.66;;;;
2021/07/19 18:06:42;;;;;;;13.2;7.3;;;;;;;22;98.16895;98432.06;;;;
2021/07/19 18:16:42;;;;;;;12.2;7;;;;;;;21.28;100;98427.33;;;;
2021/07/19 18:36:43;;;;;;;9.8;6.1;;;;;;;20.63;100;98453.78;;;;
2021/07/19 18:46:43;;;;;;;15.6;7.3;;;;;;;20.39;100;98472.32;;;;
2021/07/19 18:56:43;;;;;;;9.5;6.2;;;;;;;20.4;100;98495.02;;;;
2021/07/19 19:06:43;;;;;;;14.8;6.7;;;;;;;20.31;100;98503.51;;;;
2021/07/19 19:16:43;;;;;;;12.4;7.2;;;;;;;20.27;100;98527.3;;;;
2021/07/19 19:26:43;;;;;;;9.6;5.4;;;;;;;20.18;100;98531.46;;;;
2021/07/19 19:36:43;;;;;;;10.7;8.2;;;;;;;20.08;100;98536.44;;;;
2021/07/19 19:46:43;;;;;;;13.3;10.1;;;;;;;19.95;100;98531.57;;;;
2021/07/19 19:56:43;;;;;;;11.8;6.7;;;;;;;19.75;100;98536.35;;;;
2021/07/19 20:06:43;;;;;;;11.5;8.7;;;;;;;19.72;100;98533.56;;;;
2021/07/19 20:16:43;;;;;;;10.3;8.4;;;;;;;19.49;100;98528.16;;;;
2021/07/19 20:26:43;;;;;;;11.2;7.3;;;;;;;19.39;100;98535.02;;;;
2021/07/19 20:36:44;;;;;;;12.3;7.9;;;;;;;19.43;100;98537.84;;;;
2021/07/19 20:46:43;;;;;;;11.6;7.2;;;;;;;19.48;100;98538.3;;;;
2021/07/19 20:56:43;;;;;;;10.8;7.1;;;;;;;19.49;100;98533.63;;;;
2021/07/19 21:06:44;;;;;;;11.7;7.1;;;;;;;19.45;100;98540.98;;;;
2021/07/19 21:16:42;;;;;;;9.9;7.4;;;;;;;19.45;100;98536.31;;;;
2021/07/19 21:26:42;;;;;;;10.8;6.5;;;;;;;19.47;100;98536.72;;;;
2021/07/19 21:36:42;;;;;;;12.6;8.8;;;;;;;19.46;100;98535.16;;;;
2021/07/19 21:46:42;;;;;;;9.9;6.8;;;;;;;19.37;100;98539.25;;;;
2021/07/19 21:56:42;;;;;;;11.7;7.1;;;;;;;19.31;100;98530.58;;;;
2021/07/19 22:06:42;;;;;;;10.8;7.2;;;;;;;19.26;100;98525.44;;;;
2021/07/19 22:16:42;;;;;;;16.8;6.6;;;;;;;19.23;100;98537.08;;;;
2021/07/19 22:26:42;;;;;;;13.3;8.2;;;;;;;19.21;100;98533.14;;;;
2021/07/19 22:36:42;;;;;;;13.4;7.1;;;;;;;19.1;100;98530.23;;;;
2021/07/19 22:46:42;;;;;;;10.4;7.1;;;;;;;19.06;100;98529.38;;;;
2021/07/19 22:56:42;;;;;;;11.4;7;;;;;;;19.12;100;98527.94;;;;
2021/07/19 23:06:42;;;;;;;10.3;8.2;;;;;;;19.04;100;98535.22;;;;
2021/07/19 23:16:41;;;;;;;11.8;8;;;;;;;18.75;100;98530.39;;;;
2021/07/19 23:26:41;;;;;;;19.8;8;;;;;;;18.52;100;98535.03;;;;
2021/07/19 23:36:41;;;;;;;12.3;7.3;;;;;;;18.19;100;98526.55;;;;
2021/07/19 23:46:42;;;;;;;12.8;9.1;;;;;;;18.06;100;98526.67;;;;
2021/07/19 23:56:41;;;;;;;12.7;8.5;;;;;;;17.86;100;98521.56;;;;
